logo dgac
Martes 06 de Diciembre del 2022
Buscar por aerodromo o helipuerto
Ingrese nombre de aeródromo, localidad o designador OACI:

Aeródromo: Andres Sabella (SCFA)

Ubicación: Antofagasta, II Región, Chile (23º 26' 40'' S, 70º 26' 42'' W) Ver ubicación en el mapa

Pistas

Luces
Orientación Dimensión Pendiente Superficie Resistencia APCH THR RWY PAPI
01/19 2599 X 50 -1,20 ASPH 76 F/A/X/T No
Horas de operación H24
Elevación 139 m / 455 ft
Otra Información Adm : D.G.A.C
Uso : PUB
Ubicado : 28 km al n de la ciudad de Antofagasta
TEL ARO/AIS (56) 223307821- (56) 223307822 H24
email: aro.antofagasta@dgac.gob.cl


Otra información ver AIP-Chile Volumen I AD 2.1-1 SCFA


CCCM/FCCV Descargar
andera de Chile
Mapa de Andres Sabella  (SCFA)

Último METAR

METAR SCFA 060700Z 31003KT CAVOK 15/11 Q1014 NOSIG

Último TAF

TAF SCFA 060400Z 0606/0706 02004KT CAVOK TN16/0606Z TX20/0618Z BECMG 0615/0617 21015KT FEW020 BECMG 0622/0624 BKN011 BECMG 0702/0704 34004KT CAVOK

Últimas fotos cámaras

Imagen aerodromo Andres Sabella  (SCFA) Norte tomada el 06-12-2022 07:56:15 Imagen aerodromo Andres Sabella  (SCFA) S-Oeste tomada el 06-12-2022 07:51:25

Último NOTAM

A4499/22 NOTAMN Q)SCFZ/QFDAS/I/M/A/000/999/2327S07027W005 A)SCFA B)2212060058 C)2212092130 E)BOARDING BRIDGE NR 3 U/S DUE TO MAINT INSTRUCTIONS: ANTOFAGASTA GNDC 121.9 MHZ